createdAt,value
2023-05-22T00:00:00.184Z,0
2023-05-22T00:01:09.000Z,0
2023-05-22T00:02:32.693Z,0
2023-05-22T00:03:48.936Z,0
2023-05-22T00:05:05.193Z,0
2023-05-22T00:06:21.435Z,0
2023-05-22T00:07:37.684Z,0
2023-05-22T00:08:53.937Z,0
2023-05-22T00:10:10.195Z,0
2023-05-22T00:11:26.439Z,0
2023-05-22T00:12:42.684Z,0
2023-05-22T00:13:51.000Z,0
2023-05-22T00:15:14.248Z,0
2023-05-22T00:16:30.505Z,0
2023-05-22T00:17:46.752Z,0
2023-05-22T00:19:02.994Z,0
2023-05-22T00:20:19.249Z,0
2023-05-22T00:21:35.500Z,0
2023-05-22T00:22:51.751Z,0
2023-05-22T00:24:07.998Z,0
2023-05-22T00:25:24.249Z,0
2023-05-22T00:26:40.497Z,0
2023-05-22T00:27:56.742Z,0
2023-05-22T00:29:12.997Z,0
2023-05-22T00:30:29.252Z,0
2023-05-22T00:31:44.556Z,0
2023-05-22T00:33:00.799Z,0
2023-05-22T00:34:17.062Z,0
2023-05-22T00:35:33.314Z,0
2023-05-22T00:36:49.551Z,0
2023-05-22T00:38:05.806Z,0
2023-05-22T00:39:22.050Z,0
2023-05-22T00:40:38.309Z,0
2023-05-22T00:41:54.556Z,0
2023-05-22T00:43:10.807Z,0
2023-05-22T00:44:27.059Z,0
2023-05-22T00:45:43.308Z,0
2023-05-22T00:46:59.560Z,0
2023-05-22T00:48:14.862Z,0
2023-05-22T00:49:31.115Z,0
2023-05-22T00:50:47.364Z,0
2023-05-22T00:52:03.608Z,0
2023-05-22T00:53:19.867Z,0
2023-05-22T00:54:36.116Z,0
2023-05-22T00:55:52.360Z,0
2023-05-22T00:57:08.606Z,0
2023-05-22T00:58:24.856Z,0
2023-05-22T00:59:41.107Z,0
2023-05-22T01:00:57.358Z,0
2023-05-22T01:02:13.607Z,0
2023-05-22T01:03:29.856Z,0
2023-05-22T01:04:45.167Z,0
2023-05-22T01:06:01.421Z,0
2023-05-22T01:07:17.667Z,0
2023-05-22T01:08:33.914Z,0
2023-05-22T01:09:50.164Z,0
2023-05-22T01:11:06.416Z,0
2023-05-22T01:12:22.673Z,0
2023-05-22T01:13:38.920Z,0
2023-05-22T01:14:55.174Z,0
2023-05-22T01:16:11.423Z,0
2023-05-22T01:17:27.668Z,0
2023-05-22T01:18:43.923Z,0
2023-05-22T01:20:00.172Z,0
2023-05-22T01:21:15.484Z,0
2023-05-22T01:22:31.732Z,0
2023-05-22T01:23:47.973Z,0
2023-05-22T01:25:04.225Z,0
2023-05-22T01:26:20.479Z,0
2023-05-22T01:27:36.725Z,0
2023-05-22T01:28:52.973Z,0
2023-05-22T01:30:09.218Z,0
2023-05-22T01:31:25.468Z,0
2023-05-22T01:32:41.716Z,0
2023-05-22T01:33:57.962Z,0
2023-05-22T01:35:14.212Z,0
2023-05-22T01:36:30.458Z,0
2023-05-22T01:37:45.772Z,0
2023-05-22T01:39:02.020Z,0
2023-05-22T01:40:18.258Z,0
2023-05-22T01:41:34.517Z,0
2023-05-22T01:42:50.761Z,0
2023-05-22T01:44:07.010Z,0
2023-05-22T01:45:23.258Z,0
2023-05-22T01:46:39.507Z,0
2023-05-22T01:47:55.762Z,0
2023-05-22T01:49:12.000Z,0
2023-05-22T01:50:28.253Z,0
2023-05-22T01:51:37.000Z,0
2023-05-22T01:53:00.747Z,0
2023-05-22T01:54:16.058Z,0
2023-05-22T01:55:32.307Z,0
2023-05-22T01:56:48.554Z,0
2023-05-22T01:58:04.802Z,0
2023-05-22T01:59:21.053Z,0
2023-05-22T02:00:37.305Z,0
2023-05-22T02:01:53.551Z,0
2023-05-22T02:03:09.796Z,0
2023-05-22T02:04:26.046Z,0
2023-05-22T02:05:42.292Z,0
2023-05-22T02:06:58.546Z,0
2023-05-22T02:08:14.793Z,0
2023-05-22T02:09:31.057Z,0
2023-05-22T02:10:46.350Z,0
2023-05-22T02:12:02.589Z,0
2023-05-22T02:13:18.842Z,0
2023-05-22T02:14:27.000Z,0
2023-05-22T02:15:43.000Z,0
2023-05-22T02:17:07.582Z,0
2023-05-22T02:18:23.844Z,0
2023-05-22T02:19:40.083Z,0
2023-05-22T02:20:56.328Z,0
2023-05-22T02:22:12.583Z,0
2023-05-22T02:23:28.828Z,0
2023-05-22T02:24:45.085Z,0
2023-05-22T02:26:01.332Z,0
2023-05-22T02:27:16.634Z,0
2023-05-22T02:28:32.887Z,0
2023-05-22T02:29:49.129Z,0
2023-05-22T02:31:05.383Z,0
2023-05-22T02:32:21.628Z,0
2023-05-22T02:33:37.872Z,0
2023-05-22T02:34:54.127Z,0
2023-05-22T02:36:10.371Z,0
2023-05-22T02:37:26.622Z,0
2023-05-22T02:38:42.871Z,0
2023-05-22T02:39:59.122Z,0
2023-05-22T02:41:15.362Z,0
2023-05-22T02:42:31.616Z,0
2023-05-22T02:43:46.919Z,0
2023-05-22T02:45:03.167Z,0
2023-05-22T02:46:19.418Z,0
2023-05-22T02:47:35.680Z,0
2023-05-22T02:48:51.913Z,0
2023-05-22T02:50:08.168Z,0
2023-05-22T02:51:24.419Z,0
2023-05-22T02:52:40.666Z,0
2023-05-22T02:53:56.923Z,4
2023-05-22T02:55:13.177Z,4
2023-05-22T02:56:29.409Z,4
2023-05-22T02:57:45.660Z,0
2023-05-22T02:59:01.899Z,4
2023-05-22T03:00:17.216Z,4
2023-05-22T03:01:33.461Z,8
2023-05-22T03:02:49.708Z,8
2023-05-22T03:04:05.953Z,8
2023-05-22T03:05:22.209Z,12
2023-05-22T03:06:38.453Z,12
2023-05-22T03:07:47.000Z,16
2023-05-22T03:09:10.953Z,20
2023-05-22T03:10:27.203Z,24
2023-05-22T03:11:36.000Z,28
2023-05-22T03:12:59.699Z,32
2023-05-22T03:14:15.940Z,36
2023-05-22T03:15:24.000Z,40
2023-05-22T03:16:47.502Z,52
2023-05-22T03:18:03.749Z,60
2023-05-22T03:19:19.996Z,72
2023-05-22T03:20:36.246Z,80
2023-05-22T03:21:52.494Z,96
2023-05-22T03:23:08.749Z,112
2023-05-22T03:24:24.986Z,128
2023-05-22T03:25:41.242Z,148
2023-05-22T03:26:57.484Z,164
2023-05-22T03:28:13.743Z,188
2023-05-22T03:29:29.980Z,208
2023-05-22T03:30:46.233Z,232
2023-05-22T03:32:02.480Z,256
2023-05-22T03:33:17.779Z,280
2023-05-22T03:34:34.028Z,308
2023-05-22T03:35:50.291Z,344
2023-05-22T03:37:06.532Z,380
2023-05-22T03:38:22.778Z,420
2023-05-22T03:39:39.029Z,456
2023-05-22T03:40:54.347Z,500
2023-05-22T03:42:10.586Z,552
2023-05-22T03:43:26.854Z,596
2023-05-22T03:44:43.092Z,648
2023-05-22T03:45:59.337Z,700
2023-05-22T03:48:31.842Z,820
2023-05-22T03:49:48.086Z,876
2023-05-22T03:51:04.340Z,936
2023-05-22T03:52:20.590Z,1000
2023-05-22T03:53:36.849Z,1068
2023-05-22T03:54:53.075Z,1124
2023-05-22T03:56:09.325Z,1192
2023-05-22T03:57:24.630Z,1256
2023-05-22T03:58:40.878Z,1324
2023-05-22T03:59:57.124Z,1392
2023-05-22T04:01:13.375Z,1464
2023-05-22T04:02:29.614Z,1540
2023-05-22T04:03:45.865Z,1608
2023-05-22T04:05:02.111Z,1680
2023-05-22T04:06:18.360Z,1764
2023-05-22T04:07:34.629Z,1836
2023-05-22T04:08:50.865Z,1920
2023-05-22T04:10:07.113Z,1996
2023-05-22T04:11:23.365Z,2072
2023-05-22T04:12:39.611Z,2156
2023-05-22T04:13:54.925Z,2240
2023-05-22T04:15:11.159Z,2312
2023-05-22T04:16:27.415Z,2392
2023-05-22T04:17:43.654Z,2488
2023-05-22T04:18:59.913Z,2584
2023-05-22T04:20:16.155Z,2684
2023-05-22T04:21:32.399Z,2780
2023-05-22T04:22:48.655Z,2888
2023-05-22T04:24:04.899Z,2992
2023-05-22T04:25:21.154Z,3092
2023-05-22T04:26:37.396Z,3208
2023-05-22T04:27:53.647Z,3316
2023-05-22T04:29:09.895Z,3428
2023-05-22T04:30:25.203Z,3536
2023-05-22T04:31:41.441Z,3620
2023-05-22T04:32:57.691Z,3716
2023-05-22T04:34:13.938Z,3828
2023-05-22T04:35:30.190Z,3948
2023-05-22T04:36:46.436Z,4056
2023-05-22T04:38:02.697Z,4160
2023-05-22T04:39:18.937Z,4284
2023-05-22T04:40:35.179Z,4420
2023-05-22T04:41:51.431Z,4532
2023-05-22T04:43:07.688Z,4660
2023-05-22T04:44:23.929Z,4828
2023-05-22T04:45:40.183Z,5000
2023-05-22T04:46:55.474Z,5140
2023-05-22T04:48:11.727Z,5288
2023-05-22T04:49:27.975Z,5452
2023-05-22T04:50:44.280Z,5648
2023-05-22T04:52:00.469Z,5852
2023-05-22T04:53:16.720Z,5980
2023-05-22T04:54:32.972Z,6084
2023-05-22T04:55:49.219Z,6224
2023-05-22T04:57:05.462Z,6328
2023-05-22T04:58:21.720Z,6512
2023-05-22T04:59:37.964Z,6672
2023-05-22T05:00:54.214Z,6704
2023-05-22T05:02:10.459Z,6944
2023-05-22T05:03:25.768Z,7240
2023-05-22T05:04:42.011Z,7552
2023-05-22T05:05:58.265Z,7832
2023-05-22T05:07:14.510Z,8044
2023-05-22T05:08:30.761Z,8068
2023-05-22T05:09:47.009Z,8380
2023-05-22T05:10:55.000Z,8636
2023-05-22T05:12:19.509Z,8608
2023-05-22T05:13:35.757Z,8744
2023-05-22T05:14:52.009Z,8908
2023-05-22T05:16:08.255Z,9012
2023-05-22T05:17:24.500Z,9128
2023-05-22T05:18:40.754Z,9244
2023-05-22T05:19:56.044Z,9320
2023-05-22T05:21:12.301Z,9532
2023-05-22T05:22:28.548Z,9768
2023-05-22T05:23:44.804Z,10064
2023-05-22T05:25:01.047Z,10352
2023-05-22T05:26:17.291Z,10716
2023-05-22T05:27:33.535Z,10860
2023-05-22T05:28:49.789Z,10912
2023-05-22T05:31:22.282Z,11212
2023-05-22T05:32:38.538Z,11596
2023-05-22T05:35:11.034Z,11996
2023-05-22T05:36:26.323Z,11932
2023-05-22T05:37:42.573Z,12636
2023-05-22T05:38:58.825Z,12428
2023-05-22T05:40:15.072Z,13032
2023-05-22T05:41:31.321Z,13092
2023-05-22T05:42:47.568Z,13392
2023-05-22T05:44:03.818Z,13656
2023-05-22T05:45:20.070Z,13936
2023-05-22T05:46:36.319Z,13552
2023-05-22T05:47:52.565Z,13484
2023-05-22T05:51:41.310Z,14088
2023-05-22T05:52:56.637Z,13764
2023-05-22T05:54:12.930Z,14308
2023-05-22T05:55:28.175Z,14068
2023-05-22T05:56:44.436Z,14504
2023-05-22T05:59:16.928Z,13964
2023-05-22T06:00:33.171Z,13932
2023-05-22T06:01:49.425Z,14180
2023-05-22T06:03:05.664Z,14268
2023-05-22T06:04:21.920Z,14560
2023-05-22T06:05:38.163Z,15176
2023-05-22T06:06:54.410Z,14672
2023-05-22T06:08:10.663Z,14464
2023-05-22T06:09:26.920Z,15968
2023-05-22T06:10:43.163Z,14188
2023-05-22T06:11:58.472Z,14040
2023-05-22T06:13:14.713Z,13684
2023-05-22T06:14:30.963Z,13472
2023-05-22T06:15:47.226Z,14508
2023-05-22T06:17:03.463Z,14404
2023-05-22T06:18:19.712Z,13452
2023-05-22T06:19:35.048Z,13352
2023-05-22T06:20:50.000Z,13992
2023-05-22T06:22:06.585Z,13456
2023-05-22T06:23:22.826Z,13628
2023-05-22T06:24:39.083Z,13876
2023-05-22T06:25:55.319Z,15308
2023-05-22T06:27:11.580Z,16896
2023-05-22T06:28:27.823Z,16392
2023-05-22T06:29:44.071Z,17920
2023-05-22T06:31:00.325Z,19040
2023-05-22T06:32:16.572Z,19584
2023-05-22T06:33:32.819Z,20640
2023-05-22T06:34:49.066Z,21376
2023-05-22T06:36:05.312Z,21344
2023-05-22T06:37:21.565Z,21280
2023-05-22T06:38:37.816Z,21856
2023-05-22T06:39:53.106Z,21856
2023-05-22T06:41:09.350Z,21728
2023-05-22T06:42:25.604Z,22016
2023-05-22T06:43:41.856Z,22944
2023-05-22T06:44:58.099Z,22560
2023-05-22T06:46:14.354Z,23776
2023-05-22T06:47:30.596Z,23392
2023-05-22T06:48:46.844Z,22720
2023-05-22T06:50:03.101Z,25088
2023-05-22T06:51:19.342Z,26720
2023-05-22T06:52:35.595Z,24576
2023-05-22T06:53:51.847Z,23872
2023-05-22T06:55:08.087Z,23712
2023-05-22T06:56:23.391Z,25152
2023-05-22T06:57:39.640Z,23712
2023-05-22T06:58:55.889Z,25472
2023-05-22T07:00:12.134Z,27584
2023-05-22T07:01:28.380Z,29376
2023-05-22T07:02:44.631Z,29440
2023-05-22T07:04:00.884Z,39296
2023-05-22T07:05:17.135Z,32544
2023-05-22T07:06:33.372Z,32832
2023-05-22T07:07:49.622Z,40960
2023-05-22T07:09:05.879Z,37120
2023-05-22T07:10:22.130Z,35392
2023-05-22T07:11:38.368Z,36512
2023-05-22T07:12:53.675Z,42304
2023-05-22T07:14:09.927Z,47008
2023-05-22T07:15:26.169Z,43616
2023-05-22T07:16:42.423Z,39072
2023-05-22T07:17:58.667Z,43776
2023-05-22T07:19:14.919Z,43392
2023-05-22T07:20:31.163Z,39552
2023-05-22T07:21:47.409Z,45696
2023-05-22T07:23:03.673Z,45792
2023-05-22T07:24:19.907Z,56064
2023-05-22T07:25:36.161Z,46688
2023-05-22T07:26:52.413Z,50528
2023-05-22T07:28:08.661Z,44928
2023-05-22T07:29:24.916Z,39872
2023-05-22T07:30:40.200Z,34272
2023-05-22T07:31:56.456Z,34624
2023-05-22T07:33:12.696Z,38304
2023-05-22T07:34:28.958Z,39232
2023-05-22T07:35:45.203Z,36896
2023-05-22T07:37:01.452Z,38112
2023-05-22T07:38:17.699Z,39680
2023-05-22T07:39:33.946Z,38592
2023-05-22T07:40:50.196Z,37056
2023-05-22T07:42:06.459Z,34592
2023-05-22T07:43:22.697Z,33056
2023-05-22T07:44:38.939Z,31840
2023-05-22T07:45:55.196Z,38432
2023-05-22T07:47:10.491Z,37984
2023-05-22T07:48:26.737Z,37088
2023-05-22T07:49:42.991Z,39392
2023-05-22T07:50:59.244Z,42432
2023-05-22T07:52:15.485Z,46368
2023-05-22T07:53:31.732Z,46208
2023-05-22T07:54:47.988Z,49376
2023-05-22T07:56:03.300Z,39232
2023-05-22T07:57:19.550Z,39200
2023-05-22T07:58:35.807Z,40704
2023-05-22T07:59:52.046Z,40224
2023-05-22T08:01:08.296Z,49024
2023-05-22T08:02:24.552Z,42880
2023-05-22T08:03:40.798Z,44320
2023-05-22T08:04:57.049Z,45536
2023-05-22T08:06:13.295Z,48448
2023-05-22T08:07:29.543Z,48928
2023-05-22T08:08:45.788Z,63904
2023-05-22T08:10:02.044Z,56640
2023-05-22T08:11:18.292Z,64352
2023-05-22T08:12:33.595Z,66688
2023-05-22T08:13:49.836Z,68320
2023-05-22T08:15:06.089Z,67328
2023-05-22T08:16:22.335Z,75136
2023-05-22T08:17:38.579Z,70720
2023-05-22T08:18:54.830Z,72032
2023-05-22T08:20:11.000Z,79168
2023-05-22T08:21:27.325Z,72384
2023-05-22T08:22:43.572Z,69536
2023-05-22T08:23:59.822Z,71648
2023-05-22T08:25:16.074Z,68000
2023-05-22T08:26:32.317Z,67008
2023-05-22T08:27:48.577Z,71744
2023-05-22T08:29:03.870Z,77312
2023-05-22T08:30:20.121Z,75232
2023-05-22T08:31:36.371Z,71968
2023-05-22T08:32:52.616Z,75232
2023-05-22T08:34:08.871Z,74368
2023-05-22T08:35:25.113Z,76192
2023-05-22T08:36:41.366Z,75936
2023-05-22T08:37:57.609Z,78304
2023-05-22T08:39:13.864Z,78304
2023-05-22T08:40:30.112Z,75040
2023-05-22T08:41:46.352Z,74144
2023-05-22T08:43:02.601Z,78368
2023-05-22T08:44:18.850Z,77984
2023-05-22T08:45:34.159Z,73280
2023-05-22T08:46:50.399Z,71904
2023-05-22T08:48:06.660Z,75968
2023-05-22T08:49:22.904Z,76864
2023-05-22T08:50:39.158Z,73600
2023-05-22T08:51:55.403Z,68448
2023-05-22T08:53:11.648Z,74816
2023-05-22T08:54:27.894Z,75936
2023-05-22T08:55:44.144Z,77216
2023-05-22T08:57:00.393Z,77472
2023-05-22T08:58:16.645Z,72448
2023-05-22T08:59:32.892Z,77152
2023-05-22T09:00:49.144Z,74080
2023-05-22T09:02:04.449Z,71584
2023-05-22T09:03:20.683Z,69376
2023-05-22T09:04:36.927Z,71808
2023-05-22T09:05:53.174Z,66272
2023-05-22T09:07:09.431Z,67552
2023-05-22T09:08:25.679Z,74880
2023-05-22T09:09:41.927Z,76960
2023-05-22T09:10:58.174Z,73984
2023-05-22T09:12:14.432Z,70240
2023-05-22T09:13:30.669Z,69920
2023-05-22T09:14:46.914Z,70400
2023-05-22T09:16:03.168Z,68448
2023-05-22T09:17:19.421Z,65536
2023-05-22T09:18:34.726Z,60928
2023-05-22T09:19:50.970Z,59968
2023-05-22T09:21:07.214Z,58880
2023-05-22T09:22:23.465Z,60032
2023-05-22T09:23:39.713Z,62368
2023-05-22T09:24:55.959Z,65312
2023-05-22T09:26:12.213Z,64352
2023-05-22T09:27:28.449Z,61024
2023-05-22T09:28:44.698Z,60928
2023-05-22T09:30:00.957Z,60160
2023-05-22T09:31:17.200Z,61472
2023-05-22T09:32:33.448Z,61952
2023-05-22T09:33:49.694Z,62016
2023-05-22T09:35:05.945Z,60896
2023-05-22T09:36:22.184Z,63200
2023-05-22T09:37:38.442Z,65440
2023-05-22T09:38:53.746Z,65984
2023-05-22T09:40:09.996Z,66176
2023-05-22T09:41:26.245Z,65824
2023-05-22T09:42:42.491Z,66240
2023-05-22T09:43:58.733Z,69440
2023-05-22T09:45:14.997Z,66176
2023-05-22T09:46:31.237Z,60224
2023-05-22T09:47:47.488Z,61248
2023-05-22T09:49:03.738Z,65184
2023-05-22T09:50:19.985Z,64576
2023-05-22T09:51:36.230Z,64864
2023-05-22T09:52:52.471Z,64544
2023-05-22T09:54:08.727Z,60288
2023-05-22T09:55:24.029Z,58816
2023-05-22T09:56:40.276Z,60640
2023-05-22T09:57:56.525Z,61632
2023-05-22T09:59:12.770Z,65536
2023-05-22T10:00:29.024Z,72640
2023-05-22T10:01:45.269Z,76224
2023-05-22T10:03:01.525Z,77728
2023-05-22T10:04:17.769Z,84704
2023-05-22T10:05:34.013Z,86272
2023-05-22T10:06:50.261Z,85312
2023-05-22T10:08:06.518Z,82112
2023-05-22T10:09:22.759Z,79552
2023-05-22T10:10:39.009Z,82528
2023-05-22T10:11:54.312Z,88384
2023-05-22T10:13:10.568Z,96160
2023-05-22T10:14:26.809Z,92352
2023-05-22T10:15:43.061Z,82144
2023-05-22T10:16:59.308Z,83296
2023-05-22T10:18:15.551Z,92288
2023-05-22T10:19:31.807Z,94112
2023-05-22T10:20:48.059Z,91616
2023-05-22T10:22:04.314Z,89376
2023-05-22T10:23:20.556Z,88000
2023-05-22T10:24:36.792Z,87168
2023-05-22T10:25:53.041Z,86720
2023-05-22T10:27:01.000Z,88512
2023-05-22T10:28:24.607Z,97024
2023-05-22T10:29:40.849Z,95456
2023-05-22T10:30:57.099Z,90560
2023-05-22T10:32:13.346Z,93312
2023-05-22T10:33:29.600Z,93632
2023-05-22T10:34:45.845Z,88672
2023-05-22T10:36:02.095Z,91776
2023-05-22T10:37:18.336Z,96384
2023-05-22T10:38:34.589Z,97568
2023-05-22T10:39:50.839Z,98720
2023-05-22T10:41:07.081Z,96256
2023-05-22T10:42:23.348Z,94208
2023-05-22T10:43:39.581Z,95552
2023-05-22T10:44:55.828Z,92512
2023-05-22T10:46:11.134Z,88064
2023-05-22T10:47:27.384Z,91168
2023-05-22T10:48:43.631Z,93184
2023-05-22T10:49:59.889Z,92992
2023-05-22T10:51:16.133Z,91776
2023-05-22T10:52:32.378Z,92832
2023-05-22T10:53:48.638Z,93696
2023-05-22T10:55:04.889Z,94976
2023-05-22T10:56:21.138Z,96000
2023-05-22T10:57:37.000Z,97600
2023-05-22T10:58:53.625Z,104608
2023-05-22T11:00:09.881Z,108416
2023-05-22T11:01:26.130Z,108768
2023-05-22T11:02:41.427Z,106080
2023-05-22T11:03:57.675Z,98144
2023-05-22T11:05:13.930Z,100672
2023-05-22T11:06:30.176Z,113664
2023-05-22T11:07:46.429Z,123712
2023-05-22T11:09:02.740Z,122016
2023-05-22T11:10:18.924Z,112672
2023-05-22T11:11:35.000Z,111104
2023-05-22T11:12:51.427Z,106272
2023-05-22T11:14:07.680Z,101920
2023-05-22T11:15:23.923Z,100096
2023-05-22T11:16:40.173Z,106944
2023-05-22T11:17:56.429Z,108480
2023-05-22T11:19:12.675Z,99680
2023-05-22T11:20:28.950Z,96960
2023-05-22T11:21:44.225Z,99136
2023-05-22T11:23:00.475Z,99072
2023-05-22T11:24:16.730Z,93216
2023-05-22T11:25:32.983Z,87968
2023-05-22T11:26:49.231Z,84512
2023-05-22T11:28:05.479Z,83584
2023-05-22T11:29:21.731Z,85216
2023-05-22T11:30:37.981Z,84864
2023-05-22T11:31:54.233Z,81856
2023-05-22T11:33:10.471Z,86880
2023-05-22T11:34:26.725Z,92128
2023-05-22T11:35:42.973Z,97856
2023-05-22T11:36:51.000Z,104480
2023-05-22T11:38:14.535Z,103488
2023-05-22T11:39:30.785Z,106880
2023-05-22T11:40:47.040Z,124960
2023-05-22T11:42:03.287Z,143712
2023-05-22T11:43:19.550Z,142752
2023-05-22T11:44:35.799Z,130944
2023-05-22T11:45:52.041Z,131296
2023-05-22T11:47:08.285Z,135872
2023-05-22T11:48:24.535Z,133856
2023-05-22T11:49:40.794Z,130720
2023-05-22T11:50:57.035Z,126080
2023-05-22T11:52:13.309Z,124736
2023-05-22T11:53:29.537Z,119200
2023-05-22T11:54:45.785Z,118752
2023-05-22T11:56:01.080Z,117664
2023-05-22T11:57:17.340Z,98720
2023-05-22T11:58:33.587Z,102912
2023-05-22T11:59:49.833Z,101216
2023-05-22T12:01:06.084Z,106272
2023-05-22T12:02:22.329Z,105280
2023-05-22T12:03:38.591Z,101984
2023-05-22T12:04:54.832Z,107840
2023-05-22T12:06:11.086Z,114848
2023-05-22T12:07:27.338Z,104864
2023-05-22T12:08:43.589Z,100608
2023-05-22T12:09:59.840Z,100064
2023-05-22T12:11:16.087Z,101696
2023-05-22T12:12:31.409Z,94688
2023-05-22T12:13:47.664Z,94880
2023-05-22T12:15:03.907Z,95488
2023-05-22T12:16:20.157Z,103776
2023-05-22T12:17:36.400Z,103616
2023-05-22T12:18:52.652Z,89152
2023-05-22T12:20:08.903Z,91936
2023-05-22T12:21:25.158Z,87200
2023-05-22T12:22:41.403Z,89248
2023-05-22T12:23:57.653Z,94688
2023-05-22T12:25:13.906Z,104000
2023-05-22T12:26:30.158Z,90624
2023-05-22T12:27:46.420Z,86496
2023-05-22T12:29:01.701Z,91744
2023-05-22T12:30:17.956Z,112672
2023-05-22T12:31:34.200Z,141056
2023-05-22T12:32:50.457Z,135200
2023-05-22T12:34:06.703Z,122624
2023-05-22T12:35:22.971Z,107648
2023-05-22T12:36:39.210Z,97696
2023-05-22T12:37:55.463Z,92256
2023-05-22T12:39:11.700Z,85376
2023-05-22T12:40:27.951Z,82624
2023-05-22T12:41:44.208Z,81120
2023-05-22T12:43:00.462Z,79392
2023-05-22T12:44:16.710Z,82016
2023-05-22T12:45:32.014Z,92416
2023-05-22T12:46:48.266Z,88480
2023-05-22T12:48:04.514Z,88128
2023-05-22T12:49:20.761Z,90624
2023-05-22T12:50:37.014Z,94752
2023-05-22T12:51:53.268Z,96480
2023-05-22T12:53:09.520Z,93792
2023-05-22T12:54:25.763Z,92320
2023-05-22T12:55:42.021Z,99360
2023-05-22T12:56:58.262Z,97952
2023-05-22T12:58:14.511Z,98656
2023-05-22T12:59:30.763Z,97632
2023-05-22T13:00:47.017Z,105760
2023-05-22T13:02:02.312Z,108224
2023-05-22T13:03:18.568Z,107616
2023-05-22T13:05:51.063Z,99456
2023-05-22T13:07:07.330Z,95104
2023-05-22T13:08:23.595Z,91232
2023-05-22T13:09:39.819Z,93056
2023-05-22T13:10:48.000Z,88224
2023-05-22T13:12:12.311Z,82880
2023-05-22T13:13:28.568Z,77120
2023-05-22T13:14:44.813Z,73024
2023-05-22T13:16:01.068Z,73376
2023-05-22T13:17:17.320Z,68352
2023-05-22T13:18:32.618Z,63328
2023-05-22T13:19:48.864Z,60256
2023-05-22T13:21:05.110Z,71040
2023-05-22T13:22:21.363Z,74976
2023-05-22T13:23:37.618Z,74688
2023-05-22T13:24:53.864Z,68224
2023-05-22T13:26:10.116Z,69792
2023-05-22T13:27:26.365Z,71520
2023-05-22T13:28:42.630Z,77408
2023-05-22T13:29:58.864Z,77056
2023-05-22T13:31:15.114Z,77312
2023-05-22T13:32:31.366Z,80736
2023-05-22T13:33:47.614Z,80928
2023-05-22T13:35:02.918Z,79808
2023-05-22T13:36:19.173Z,79392
2023-05-22T13:37:35.411Z,78400
2023-05-22T13:38:51.668Z,76960
2023-05-22T13:40:07.909Z,75040
2023-05-22T13:41:24.172Z,73472
2023-05-22T13:42:40.416Z,61888
2023-05-22T13:43:56.666Z,64736
2023-05-22T13:45:12.916Z,70720
2023-05-22T13:46:29.168Z,66688
2023-05-22T13:47:45.418Z,60064
2023-05-22T13:49:01.665Z,58464
2023-05-22T13:50:17.916Z,60928
2023-05-22T13:51:33.209Z,62624
2023-05-22T13:52:49.462Z,63744
2023-05-22T13:54:05.722Z,54944
2023-05-22T13:55:21.970Z,59552
2023-05-22T13:56:38.216Z,63584
2023-05-22T13:57:54.467Z,57664
2023-05-22T13:59:10.724Z,60000
2023-05-22T14:00:26.973Z,61440
2023-05-22T14:01:43.222Z,63616
2023-05-22T14:02:59.464Z,66656
2023-05-22T14:04:15.719Z,63968
2023-05-22T14:05:31.970Z,62080
2023-05-22T14:06:48.218Z,66976
2023-05-22T14:08:04.470Z,68160
2023-05-22T14:09:19.764Z,62464
2023-05-22T14:10:36.020Z,60608
2023-05-22T14:11:52.266Z,51808
2023-05-22T14:13:08.518Z,47552
2023-05-22T14:14:24.764Z,50688
2023-05-22T14:15:41.015Z,50592
2023-05-22T14:16:57.262Z,56576
2023-05-22T14:18:13.510Z,59328
2023-05-22T14:19:29.765Z,59616
2023-05-22T14:20:46.020Z,57376
2023-05-22T14:22:02.264Z,56704
2023-05-22T14:23:18.518Z,54048
2023-05-22T14:24:34.771Z,51232
2023-05-22T14:25:50.059Z,47840
2023-05-22T14:27:06.316Z,46112
2023-05-22T14:28:22.569Z,46112
2023-05-22T14:29:38.811Z,46656
2023-05-22T14:30:55.068Z,47040
2023-05-22T14:32:11.310Z,48224
2023-05-22T14:33:27.558Z,44960
2023-05-22T14:34:43.819Z,43424
2023-05-22T14:36:00.068Z,44768
2023-05-22T14:37:16.311Z,45952
2023-05-22T14:38:32.562Z,47424
2023-05-22T14:39:48.827Z,47424
2023-05-22T14:41:05.063Z,47936
2023-05-22T14:42:20.360Z,47328
2023-05-22T14:44:52.860Z,35872
2023-05-22T14:46:09.109Z,38304
2023-05-22T14:47:25.352Z,50496
2023-05-22T14:48:41.608Z,51936
2023-05-22T14:49:57.858Z,48864
2023-05-22T14:51:14.104Z,46592
2023-05-22T14:52:30.360Z,45568
2023-05-22T14:53:46.606Z,45920
2023-05-22T14:56:19.102Z,44640
2023-05-22T14:57:35.366Z,43648
2023-05-22T14:58:50.651Z,43840
2023-05-22T15:00:06.907Z,40096
2023-05-22T15:01:23.152Z,38368
2023-05-22T15:02:39.406Z,36416
2023-05-22T15:03:55.657Z,34752
2023-05-22T15:05:11.913Z,34848
2023-05-22T15:06:28.158Z,36192
2023-05-22T15:07:44.409Z,37920
2023-05-22T15:09:00.664Z,37888
2023-05-22T15:10:16.904Z,38656
2023-05-22T15:11:33.160Z,37856
2023-05-22T15:12:49.403Z,37696
2023-05-22T15:14:05.651Z,36640
2023-05-22T15:15:20.965Z,35808
2023-05-22T15:16:37.208Z,34720
2023-05-22T15:17:53.459Z,33856
2023-05-22T15:19:09.737Z,32896
2023-05-22T15:20:25.975Z,31968
2023-05-22T15:21:42.254Z,31296
2023-05-22T15:22:58.459Z,30624
2023-05-22T15:24:14.711Z,29888
2023-05-22T15:25:30.962Z,29376
2023-05-22T15:26:47.215Z,29312
2023-05-22T15:28:03.459Z,29120
2023-05-22T15:29:19.717Z,28800
2023-05-22T15:30:35.960Z,28992
2023-05-22T15:31:51.264Z,28768
2023-05-22T15:33:07.506Z,28160
2023-05-22T15:34:23.761Z,27360
2023-05-22T15:35:40.014Z,26560
2023-05-22T15:36:56.262Z,26112
2023-05-22T15:38:12.521Z,25504
2023-05-22T15:39:28.753Z,25184
2023-05-22T15:40:45.014Z,24832
2023-05-22T15:42:01.259Z,24480
2023-05-22T15:43:17.507Z,24096
2023-05-22T15:44:33.761Z,23808
2023-05-22T15:45:50.013Z,23136
2023-05-22T15:47:06.260Z,23072
2023-05-22T15:48:21.558Z,23200
2023-05-22T15:49:37.824Z,23360
2023-05-22T15:50:54.060Z,23840
2023-05-22T15:52:10.303Z,24448
2023-05-22T15:53:26.562Z,24928
2023-05-22T15:54:42.806Z,25568
2023-05-22T15:55:59.055Z,26304
2023-05-22T15:57:15.324Z,27232
2023-05-22T15:58:31.555Z,27808
2023-05-22T15:59:47.840Z,28416
2023-05-22T16:01:04.055Z,28928
2023-05-22T16:02:20.314Z,28576
2023-05-22T16:03:36.553Z,29248
2023-05-22T16:04:51.862Z,29792
2023-05-22T16:06:08.116Z,30336
2023-05-22T16:07:24.358Z,31904
2023-05-22T16:08:40.609Z,32800
2023-05-22T16:09:56.862Z,33344
2023-05-22T16:11:13.107Z,33536
2023-05-22T16:12:29.356Z,34624
2023-05-22T16:13:45.610Z,36992
2023-05-22T16:15:01.859Z,38176
2023-05-22T16:16:18.114Z,37440
2023-05-22T16:17:34.360Z,37088
2023-05-22T16:18:50.609Z,36864
2023-05-22T16:20:06.855Z,38048
2023-05-22T16:21:22.152Z,38720
2023-05-22T16:22:38.412Z,38720
2023-05-22T16:23:54.655Z,38592
2023-05-22T16:25:10.911Z,38240
2023-05-22T16:26:27.169Z,39456
2023-05-22T16:27:43.405Z,40256
2023-05-22T16:28:58.721Z,40256
2023-05-22T16:30:14.976Z,39136
2023-05-22T16:31:31.224Z,36896
2023-05-22T16:32:47.479Z,37024
2023-05-22T16:34:03.722Z,38144
2023-05-22T16:35:19.984Z,31840
2023-05-22T16:36:36.223Z,30848
2023-05-22T16:37:52.476Z,30464
2023-05-22T16:39:08.721Z,33152
2023-05-22T16:40:24.979Z,35424
2023-05-22T16:41:41.229Z,33856
2023-05-22T16:42:57.472Z,34208
2023-05-22T16:44:13.722Z,33856
2023-05-22T16:45:29.030Z,28000
2023-05-22T16:46:45.272Z,26816
2023-05-22T16:48:01.525Z,29184
2023-05-22T16:49:17.786Z,27904
2023-05-22T16:50:34.029Z,25056
2023-05-22T16:51:50.276Z,24032
2023-05-22T16:53:06.519Z,23264
2023-05-22T16:54:22.000Z,22688
2023-05-22T16:55:39.018Z,22304
2023-05-22T16:56:55.287Z,22208
2023-05-22T16:58:11.528Z,22240
2023-05-22T16:59:27.776Z,22560